createdAt,value
2023-04-20T05:46:03.113Z,10.61
2023-04-20T05:48:48.612Z,10.61
2023-04-20T05:51:34.298Z,10.09
2023-04-20T05:54:20.472Z,10.35
2023-04-20T05:57:06.249Z,10.70
2023-04-20T05:59:51.773Z,10.93
2023-04-20T06:02:37.520Z,11.09
2023-04-20T06:05:23.270Z,11.05
2023-04-20T06:08:09.836Z,10.94
2023-04-20T06:10:59.297Z,11.36
2023-04-20T06:13:44.984Z,11.62
2023-04-20T06:16:30.584Z,11.69
2023-04-20T06:19:16.454Z,11.84
2023-04-20T06:22:09.062Z,11.92
2023-04-20T06:24:54.793Z,12.06
2023-04-20T06:27:40.001Z,12.29
2023-04-20T06:30:25.829Z,12.30
2023-04-20T06:33:17.065Z,12.32
2023-04-20T06:36:07.054Z,12.33
2023-04-20T06:38:52.491Z,12.41
2023-04-20T06:41:39.287Z,12.47
2023-04-20T06:44:24.997Z,12.58
2023-04-20T06:47:12.082Z,12.74
2023-04-20T06:50:04.214Z,13.12
2023-04-20T06:52:51.825Z,13.24
2023-04-20T06:55:38.900Z,13.38
2023-04-20T06:58:25.103Z,13.58
2023-04-20T07:01:11.070Z,13.58
2023-04-20T07:03:57.127Z,13.67
2023-04-20T07:06:42.711Z,13.98
2023-04-20T07:09:28.477Z,14.36
2023-04-20T07:12:15.848Z,14.36
2023-04-20T07:15:02.887Z,14.43
2023-04-20T07:17:48.393Z,14.53
2023-04-20T07:20:33.488Z,14.73
2023-04-20T07:23:21.578Z,14.78
2023-04-20T07:26:08.337Z,14.99
2023-04-20T07:28:54.728Z,14.99
2023-04-20T07:31:43.263Z,15.13
2023-04-20T07:34:29.905Z,15.40
2023-04-20T07:37:15.889Z,15.43
2023-04-20T07:40:09.925Z,15.67
2023-04-20T07:42:56.214Z,15.78
2023-04-20T07:45:42.060Z,15.97
2023-04-20T07:48:27.408Z,16.19
2023-04-20T07:51:13.301Z,16.12
2023-04-20T07:53:58.812Z,16.16
2023-04-20T07:56:44.040Z,16.18
2023-04-20T07:59:33.140Z,16.63
2023-04-20T08:02:18.943Z,16.98
2023-04-20T08:05:06.264Z,17.21
2023-04-20T08:07:51.527Z,17.14
2023-04-20T08:10:38.227Z,17.32
2023-04-20T08:13:23.614Z,17.53
2023-04-20T08:16:09.400Z,17.43
2023-04-20T08:18:55.037Z,17.40
2023-04-20T08:21:41.183Z,17.60
2023-04-20T08:24:26.867Z,17.92
2023-04-20T08:27:14.031Z,18.16
2023-04-20T08:29:59.500Z,18.24
2023-04-20T08:32:45.041Z,18.63
2023-04-20T08:35:30.685Z,19.26
2023-04-20T08:38:20.670Z,20.07
2023-04-20T08:41:08.902Z,23.15
2023-04-20T08:43:57.474Z,26.74
2023-04-20T08:46:47.711Z,28.09
2023-04-20T08:49:33.983Z,29.65
2023-04-20T08:52:19.741Z,31.76
2023-04-20T08:55:05.565Z,32.19
2023-04-20T08:57:51.334Z,33.92
2023-04-20T09:00:50.765Z,33.75
2023-04-20T09:03:39.004Z,34.28
2023-04-20T09:06:24.618Z,34.06
2023-04-20T09:09:12.301Z,33.64
2023-04-20T09:12:02.951Z,34.58
2023-04-20T09:14:48.882Z,33.91
2023-04-20T09:17:36.266Z,34.17
2023-04-20T09:20:34.160Z,35.24
2023-04-20T09:23:21.704Z,31.69
2023-04-20T09:26:18.066Z,33.46
2023-04-20T09:29:04.084Z,35.81
2023-04-20T09:31:50.442Z,34.70
2023-04-20T09:34:45.339Z,35.78
2023-04-20T09:37:31.768Z,37.15
2023-04-20T09:40:18.311Z,35.00
2023-04-20T09:43:19.921Z,35.59
2023-04-20T09:46:06.371Z,36.72
2023-04-20T09:48:52.249Z,36.90
2023-04-20T09:51:45.144Z,37.53
2023-04-20T09:54:31.923Z,37.04
2023-04-20T09:57:19.410Z,38.93
2023-04-20T10:00:10.910Z,38.18
2023-04-20T10:02:57.556Z,38.93
2023-04-20T10:05:43.591Z,34.45
2023-04-20T10:08:41.478Z,32.76
2023-04-20T10:11:49.033Z,36.16
2023-04-20T10:14:38.861Z,36.15
2023-04-20T10:17:31.754Z,37.05
2023-04-20T10:20:27.555Z,37.47
2023-04-20T10:23:21.265Z,37.11
2023-04-20T10:26:08.241Z,39.00
2023-04-20T10:28:53.468Z,37.28
2023-04-20T10:31:40.752Z,31.80
2023-04-20T10:34:33.834Z,29.84
2023-04-20T10:37:20.290Z,28.77
2023-04-20T10:40:08.123Z,27.37
2023-04-20T10:42:53.967Z,27.56
2023-04-20T10:45:40.444Z,27.66
2023-04-20T10:48:26.560Z,26.19
2023-04-20T10:51:11.936Z,25.72
2023-04-20T10:54:06.757Z,25.04
2023-04-20T10:56:53.160Z,24.64
2023-04-20T10:59:39.143Z,23.95
2023-04-20T11:02:24.556Z,23.65
2023-04-20T11:05:15.094Z,23.81
2023-04-20T11:08:01.505Z,23.77
2023-04-20T11:10:47.129Z,23.73
2023-04-20T11:13:33.042Z,23.29
2023-04-20T11:16:19.549Z,22.93
2023-04-20T11:19:06.219Z,22.34
2023-04-20T11:21:54.882Z,22.43
2023-04-20T11:24:46.657Z,22.30
2023-04-20T11:27:34.067Z,22.61
2023-04-20T11:30:19.750Z,22.61
